createdAt,value
2023-05-22T00:02:08.254Z,18.40
2023-05-22T00:04:35.242Z,18.40
2023-05-22T00:07:02.098Z,18.40
2023-05-22T00:09:29.011Z,18.20
2023-05-22T00:11:55.990Z,18.20
2023-05-22T00:14:22.909Z,18.10
2023-05-22T00:16:50.329Z,18.20
2023-05-22T00:19:18.331Z,18.20
2023-05-22T00:21:46.890Z,18.00
2023-05-22T00:24:13.797Z,18.00
2023-05-22T00:26:40.682Z,18.20
2023-05-22T00:29:07.598Z,18.10
2023-05-22T00:31:34.588Z,18.20
2023-05-22T00:34:01.619Z,18.20
2023-05-22T00:36:29.594Z,18.10
2023-05-22T00:38:56.506Z,18.10
2023-05-22T00:41:23.768Z,18.00
2023-05-22T00:43:51.364Z,18.00
2023-05-22T00:46:21.673Z,17.90
2023-05-22T00:48:49.235Z,18.00
2023-05-22T00:51:22.775Z,18.00
2023-05-22T00:53:50.808Z,18.00
2023-05-22T00:56:18.506Z,18.00
2023-05-22T00:58:45.912Z,18.00
2023-05-22T01:01:13.042Z,18.00
2023-05-22T01:03:50.821Z,18.00
2023-05-22T01:06:18.440Z,17.90
2023-05-22T01:08:45.535Z,17.90
2023-05-22T01:11:27.569Z,17.80
2023-05-22T01:14:12.386Z,17.90
2023-05-22T01:17:00.088Z,17.80
2023-05-22T01:20:02.056Z,17.70
2023-05-22T01:22:58.404Z,17.80
2023-05-22T01:25:56.745Z,17.80
2023-05-22T01:28:52.050Z,17.80
2023-05-22T01:31:31.328Z,17.70
2023-05-22T01:34:02.529Z,17.60
2023-05-22T01:36:31.876Z,17.60
2023-05-22T01:39:01.597Z,17.60
2023-05-22T01:41:29.958Z,17.60
2023-05-22T01:43:57.113Z,17.60
2023-05-22T01:46:28.934Z,17.30
2023-05-22T01:48:56.692Z,17.60
2023-05-22T01:51:44.621Z,17.40
2023-05-22T01:54:39.219Z,17.30
2023-05-22T01:57:37.575Z,17.40
2023-05-22T02:00:10.187Z,17.30
2023-05-22T02:02:48.505Z,17.20
2023-05-22T02:05:18.884Z,17.20
2023-05-22T02:07:47.617Z,17.10
2023-05-22T02:10:15.687Z,17.20
2023-05-22T02:12:42.931Z,17.10
2023-05-22T02:15:11.529Z,17.10
2023-05-22T02:17:42.608Z,17.10
2023-05-22T02:20:15.424Z,17.20
2023-05-22T02:22:45.401Z,17.10
2023-05-22T02:25:17.036Z,17.10
2023-05-22T02:27:46.742Z,17.10
2023-05-22T02:30:14.831Z,17.10
2023-05-22T02:32:42.935Z,17.10
2023-05-22T02:35:10.696Z,17.10
2023-05-22T02:37:38.327Z,17.20
2023-05-22T02:40:06.376Z,17.10
2023-05-22T02:42:34.368Z,17.10
2023-05-22T02:45:02.527Z,17.10
2023-05-22T02:47:30.066Z,17.00
2023-05-22T02:49:58.101Z,17.00
2023-05-22T02:52:25.329Z,17.00
2023-05-22T02:54:52.436Z,16.80
2023-05-22T02:57:20.692Z,16.80
2023-05-22T02:59:47.808Z,16.80
2023-05-22T03:02:15.454Z,16.80
2023-05-22T03:04:42.501Z,16.90
2023-05-22T03:07:10.079Z,17.00
2023-05-22T03:09:37.107Z,16.90
2023-05-22T03:12:05.223Z,17.00
2023-05-22T03:14:32.182Z,16.80
2023-05-22T03:16:59.527Z,16.70
2023-05-22T03:19:27.039Z,16.80
2023-05-22T03:21:54.458Z,16.70
2023-05-22T03:24:23.071Z,16.80
2023-05-22T03:26:50.164Z,16.90
2023-05-22T03:29:23.903Z,16.80
2023-05-22T03:31:50.912Z,16.80
2023-05-22T03:34:17.835Z,16.80
2023-05-22T03:36:48.290Z,16.70
2023-05-22T03:39:16.936Z,16.60
2023-05-22T03:41:53.387Z,16.60
2023-05-22T03:44:20.916Z,16.70
2023-05-22T03:46:47.837Z,16.60
2023-05-22T03:49:15.339Z,16.60
2023-05-22T03:51:42.232Z,16.60
2023-05-22T03:54:09.128Z,16.60
2023-05-22T03:56:35.999Z,16.60
2023-05-22T03:59:02.913Z,16.70
2023-05-22T04:01:29.980Z,16.60
2023-05-22T04:03:56.859Z,16.50
2023-05-22T04:06:23.799Z,16.50
2023-05-22T04:08:50.668Z,16.60
2023-05-22T04:11:18.569Z,16.40
2023-05-22T04:13:45.982Z,16.40
2023-05-22T04:16:13.024Z,16.30
2023-05-22T04:18:40.024Z,16.20
2023-05-22T04:21:09.771Z,16.20
2023-05-22T04:23:37.147Z,16.00
2023-05-22T04:26:04.664Z,16.20
2023-05-22T04:28:31.529Z,16.00
2023-05-22T04:30:58.433Z,16.00
2023-05-22T04:33:25.408Z,16.00
2023-05-22T04:35:52.295Z,16.00
2023-05-22T04:38:19.150Z,15.90
2023-05-22T04:40:46.149Z,15.90
2023-05-22T04:43:14.235Z,15.90
2023-05-22T04:45:42.362Z,15.90
2023-05-22T04:48:09.399Z,16.00
2023-05-22T04:50:38.838Z,16.00
2023-05-22T04:53:06.384Z,15.90
2023-05-22T04:55:34.118Z,16.10
2023-05-22T04:58:01.612Z,16.10
2023-05-22T05:00:29.495Z,16.10
2023-05-22T05:02:57.560Z,16.20
2023-05-22T05:05:24.998Z,16.00
2023-05-22T05:07:53.333Z,16.00
2023-05-22T05:10:20.601Z,16.00
2023-05-22T05:12:47.546Z,16.00
2023-05-22T05:15:14.572Z,16.00
2023-05-22T05:17:41.662Z,16.10
2023-05-22T05:20:09.228Z,16.40
2023-05-22T05:22:37.466Z,16.30
2023-05-22T05:25:08.078Z,16.20
2023-05-22T05:27:35.945Z,16.10
2023-05-22T05:30:03.001Z,16.10
2023-05-22T05:32:42.206Z,16.00
2023-05-22T05:35:39.170Z,15.90
2023-05-22T05:38:09.414Z,16.10
2023-05-22T05:40:38.680Z,16.10
2023-05-22T05:43:09.331Z,16.00
2023-05-22T05:45:36.797Z,16.00
2023-05-22T05:48:04.169Z,16.10
2023-05-22T05:50:31.316Z,16.20
2023-05-22T05:52:58.580Z,16.30
2023-05-22T05:55:25.697Z,16.30
2023-05-22T05:57:54.080Z,16.40
2023-05-22T06:00:28.499Z,16.40
2023-05-22T06:02:59.435Z,16.40
2023-05-22T06:05:47.932Z,16.50
2023-05-22T06:08:22.605Z,16.50
2023-05-22T06:10:50.290Z,16.50
2023-05-22T06:13:32.338Z,16.50
2023-05-22T06:16:02.148Z,16.70
2023-05-22T06:18:31.537Z,16.70
2023-05-22T06:20:59.109Z,16.70
2023-05-22T06:23:26.363Z,16.60
2023-05-22T06:25:55.488Z,16.70
2023-05-22T06:28:23.184Z,16.90
2023-05-22T06:30:50.170Z,16.80
2023-05-22T06:33:20.228Z,16.80
2023-05-22T06:35:47.156Z,17.00
2023-05-22T06:38:15.018Z,17.20
2023-05-22T06:40:43.858Z,17.20
2023-05-22T06:43:16.078Z,17.20
2023-05-22T06:45:52.528Z,17.10
2023-05-22T06:48:36.272Z,16.90
2023-05-22T06:51:11.518Z,16.90
2023-05-22T06:53:40.176Z,16.90
2023-05-22T06:56:12.698Z,17.00
2023-05-22T06:58:51.412Z,17.00
2023-05-22T07:01:19.633Z,17.00
2023-05-22T07:04:05.112Z,17.10
2023-05-22T07:06:39.035Z,17.00
2023-05-22T07:09:07.182Z,17.00
2023-05-22T07:11:35.944Z,17.00
2023-05-22T07:14:03.342Z,17.10
2023-05-22T07:16:34.110Z,17.00
2023-05-22T07:19:01.587Z,17.30
2023-05-22T07:21:31.742Z,17.30
2023-05-22T07:23:58.735Z,17.30
2023-05-22T07:26:27.790Z,17.30
2023-05-22T07:29:03.231Z,17.20
2023-05-22T07:31:31.616Z,17.30
2023-05-22T07:33:58.494Z,17.40
2023-05-22T07:36:25.650Z,17.70
2023-05-22T07:38:52.612Z,17.70
2023-05-22T07:41:19.747Z,17.50
2023-05-22T07:43:46.608Z,17.60
2023-05-22T07:46:19.639Z,17.50
2023-05-22T07:48:56.698Z,17.60
2023-05-22T07:51:23.712Z,17.60
2023-05-22T07:53:52.153Z,17.60
2023-05-22T07:56:19.090Z,17.80
2023-05-22T07:58:48.457Z,17.70
2023-05-22T08:01:18.618Z,17.90
2023-05-22T08:03:45.663Z,17.80
2023-05-22T08:06:12.909Z,17.80
2023-05-22T08:08:39.815Z,17.90
2023-05-22T08:11:06.972Z,18.10
2023-05-22T08:13:34.045Z,17.90
2023-05-22T08:16:01.476Z,17.90
2023-05-22T08:18:29.577Z,18.10
2023-05-22T08:20:56.927Z,18.20
2023-05-22T08:23:23.744Z,18.10
2023-05-22T08:25:50.506Z,18.20
2023-05-22T08:28:17.330Z,18.20
2023-05-22T08:30:44.248Z,18.30
2023-05-22T08:33:12.197Z,18.40
2023-05-22T08:35:39.404Z,18.40
2023-05-22T08:38:06.259Z,18.40
2023-05-22T08:40:40.259Z,18.50
2023-05-22T08:43:08.345Z,18.40
2023-05-22T08:45:35.506Z,18.50
2023-05-22T08:48:06.505Z,18.60
2023-05-22T08:50:36.983Z,18.70
2023-05-22T08:53:07.120Z,18.70
2023-05-22T08:55:34.807Z,18.80
2023-05-22T08:58:02.140Z,18.80
2023-05-22T09:00:29.754Z,18.90
2023-05-22T09:02:57.521Z,19.00
2023-05-22T09:05:27.990Z,19.10
2023-05-22T09:07:58.449Z,19.10
2023-05-22T09:10:29.946Z,19.10
2023-05-22T09:13:04.847Z,19.10
2023-05-22T09:15:32.462Z,19.10
2023-05-22T09:17:59.937Z,19.00
2023-05-22T09:20:26.951Z,19.10
2023-05-22T09:22:53.789Z,19.20
2023-05-22T09:25:21.486Z,19.30
2023-05-22T09:27:50.402Z,19.30
2023-05-22T09:30:18.717Z,19.40
2023-05-22T09:32:48.751Z,19.30
2023-05-22T09:35:16.357Z,19.30
2023-05-22T09:37:43.328Z,19.50
2023-05-22T09:40:16.255Z,19.60
2023-05-22T09:42:46.180Z,19.60
2023-05-22T09:45:13.527Z,19.70
2023-05-22T09:47:40.792Z,19.70
2023-05-22T09:50:10.390Z,19.90
2023-05-22T09:52:38.135Z,19.90
2023-05-22T09:55:07.242Z,20.00
2023-05-22T09:57:45.097Z,20.00
2023-05-22T10:00:15.558Z,20.10
2023-05-22T10:02:46.117Z,20.10
2023-05-22T10:05:32.571Z,20.10
2023-05-22T10:08:10.760Z,20.10
2023-05-22T10:10:39.279Z,20.10
2023-05-22T10:13:06.699Z,20.30
2023-05-22T10:15:34.386Z,20.30
2023-05-22T10:18:02.004Z,20.40
2023-05-22T10:20:30.139Z,20.40
2023-05-22T10:22:57.203Z,20.40
2023-05-22T10:25:24.287Z,20.60
2023-05-22T10:27:55.882Z,20.60
2023-05-22T10:30:36.809Z,20.80
2023-05-22T10:33:40.818Z,20.90
2023-05-22T10:36:20.334Z,21.10
2023-05-22T10:38:56.357Z,20.90
2023-05-22T10:41:23.840Z,21.00
2023-05-22T10:43:51.444Z,20.90
2023-05-22T10:46:19.003Z,21.00
2023-05-22T10:48:48.014Z,21.00
2023-05-22T10:51:19.347Z,21.00
2023-05-22T10:53:53.162Z,21.30
2023-05-22T10:56:21.276Z,21.30
2023-05-22T10:59:08.323Z,21.30
2023-05-22T11:01:38.168Z,21.40
2023-05-22T11:04:15.865Z,21.40
2023-05-22T11:07:04.470Z,21.50
2023-05-22T11:09:43.307Z,21.60
2023-05-22T11:12:21.426Z,21.80
2023-05-22T11:14:56.545Z,21.90
2023-05-22T11:17:26.775Z,22.00
2023-05-22T11:20:13.190Z,21.80
2023-05-22T11:22:49.963Z,21.80
2023-05-22T11:25:19.108Z,22.00
2023-05-22T11:27:47.863Z,22.10
2023-05-22T11:30:15.978Z,22.20
2023-05-22T11:32:48.063Z,22.20
2023-05-22T11:35:17.400Z,22.10
2023-05-22T11:37:44.577Z,22.20
2023-05-22T11:40:15.549Z,22.30
2023-05-22T11:42:42.761Z,22.40
2023-05-22T11:45:10.766Z,22.50
2023-05-22T11:47:38.569Z,22.50
2023-05-22T11:50:08.785Z,22.40
2023-05-22T11:52:37.093Z,22.40
2023-05-22T11:55:07.943Z,22.50
2023-05-22T11:57:35.829Z,22.60
2023-05-22T12:00:06.519Z,22.60
2023-05-22T12:02:39.365Z,22.70
2023-05-22T12:05:10.135Z,22.70
2023-05-22T12:07:37.095Z,22.80
2023-05-22T12:10:07.214Z,22.80
2023-05-22T12:12:34.248Z,22.90
2023-05-22T12:15:01.092Z,23.00
2023-05-22T12:17:28.854Z,23.00
2023-05-22T12:19:55.709Z,23.10
2023-05-22T12:22:29.737Z,23.20
2023-05-22T12:24:56.743Z,23.20
2023-05-22T12:27:23.655Z,23.20
2023-05-22T12:29:52.850Z,23.40
2023-05-22T12:32:22.119Z,23.40
2023-05-22T12:34:50.411Z,23.50
2023-05-22T12:37:21.804Z,23.50
2023-05-22T12:40:14.806Z,23.50
2023-05-22T12:42:41.836Z,23.60
2023-05-22T12:45:09.308Z,23.50
2023-05-22T12:47:36.181Z,23.50
2023-05-22T12:50:03.017Z,23.60
2023-05-22T12:52:29.889Z,23.60
2023-05-22T12:54:56.801Z,23.70
2023-05-22T12:57:23.681Z,23.60
2023-05-22T12:59:50.542Z,23.50
2023-05-22T13:02:17.726Z,23.50
2023-05-22T13:04:44.634Z,23.40
2023-05-22T13:07:11.517Z,23.20
2023-05-22T13:09:38.386Z,23.20
2023-05-22T13:12:05.732Z,23.40
2023-05-22T13:14:32.642Z,23.50
2023-05-22T13:16:59.477Z,23.60
2023-05-22T13:19:26.666Z,23.60
2023-05-22T13:21:53.550Z,23.90
2023-05-22T13:24:20.466Z,23.80
2023-05-22T13:26:47.353Z,23.60
2023-05-22T13:29:15.173Z,23.50
2023-05-22T13:31:43.204Z,23.50
2023-05-22T13:34:10.263Z,23.40
2023-05-22T13:36:37.278Z,23.40
2023-05-22T13:39:04.261Z,23.50
2023-05-22T13:41:31.207Z,23.80
2023-05-22T13:43:58.076Z,23.90
2023-05-22T13:46:44.366Z,24.00
2023-05-22T13:49:11.206Z,24.00
2023-05-22T13:51:38.150Z,24.10
2023-05-22T13:54:05.266Z,24.30
2023-05-22T13:56:32.687Z,24.40
2023-05-22T13:59:00.061Z,24.40
2023-05-22T14:01:27.459Z,24.70
2023-05-22T14:03:54.310Z,24.80
2023-05-22T14:06:21.201Z,24.80
2023-05-22T14:08:48.464Z,24.90
2023-05-22T14:11:15.325Z,24.90
2023-05-22T14:13:42.697Z,25.00
2023-05-22T14:16:09.629Z,25.10
2023-05-22T14:18:36.454Z,25.00
2023-05-22T14:21:04.935Z,25.00
2023-05-22T14:23:31.906Z,24.90
2023-05-22T14:25:58.757Z,25.00
2023-05-22T14:28:26.075Z,25.20
2023-05-22T14:30:52.985Z,25.10
2023-05-22T14:33:19.877Z,24.90
2023-05-22T14:35:48.394Z,24.80
2023-05-22T14:38:15.274Z,24.60
2023-05-22T14:40:42.208Z,24.60
2023-05-22T14:43:09.026Z,24.70
2023-05-22T14:45:36.283Z,24.60
2023-05-22T14:48:03.151Z,24.60
2023-05-22T14:50:30.034Z,24.60
2023-05-22T14:52:56.868Z,24.50
2023-05-22T14:55:27.625Z,24.40
2023-05-22T14:57:56.388Z,24.30
2023-05-22T15:00:24.172Z,24.20
2023-05-22T15:02:51.328Z,24.00
2023-05-22T15:05:18.441Z,23.90
2023-05-22T15:07:46.816Z,23.80
2023-05-22T15:10:15.404Z,23.70
2023-05-22T15:12:42.357Z,23.60
2023-05-22T15:15:09.544Z,23.70
2023-05-22T15:17:36.469Z,23.90
2023-05-22T15:20:05.483Z,23.90
2023-05-22T15:22:32.352Z,23.90
2023-05-22T15:25:06.368Z,23.80
2023-05-22T15:27:35.793Z,23.80
2023-05-22T15:30:04.512Z,23.70
2023-05-22T15:32:36.188Z,23.60
2023-05-22T15:35:03.277Z,23.40
2023-05-22T15:37:33.842Z,23.30
2023-05-22T15:40:01.967Z,23.30
2023-05-22T15:42:29.412Z,23.10
2023-05-22T15:44:58.478Z,23.00
2023-05-22T15:47:25.438Z,23.00
2023-05-22T15:49:52.708Z,23.00
2023-05-22T15:52:21.089Z,23.00
2023-05-22T15:54:48.029Z,22.90
2023-05-22T15:57:14.943Z,22.90
2023-05-22T15:59:41.771Z,22.90
2023-05-22T16:02:08.967Z,22.80
2023-05-22T16:04:36.200Z,22.80
2023-05-22T16:07:03.134Z,22.80
2023-05-22T16:09:32.034Z,22.70
2023-05-22T16:11:59.612Z,22.70
2023-05-22T16:14:26.509Z,22.60
2023-05-22T16:16:53.424Z,22.60
2023-05-22T16:19:20.435Z,22.50
2023-05-22T16:21:47.344Z,22.50
2023-05-22T16:24:14.245Z,22.30
2023-05-22T16:26:41.208Z,22.30
2023-05-22T16:29:09.106Z,22.20
2023-05-22T16:31:36.196Z,22.00
2023-05-22T16:34:03.608Z,22.00
2023-05-22T16:36:30.983Z,22.30
2023-05-22T16:38:58.045Z,22.30
2023-05-22T16:41:24.973Z,22.30
2023-05-22T16:43:51.896Z,22.40
2023-05-22T16:46:18.823Z,22.30
2023-05-22T16:48:45.849Z,22.10
2023-05-22T16:51:12.712Z,22.20
2023-05-22T16:53:41.946Z,22.10
2023-05-22T16:56:08.993Z,22.00
2023-05-22T16:58:35.985Z,22.10
2023-05-22T17:01:03.006Z,22.20
2023-05-22T17:03:30.134Z,22.20
2023-05-22T17:05:57.427Z,22.00
2023-05-22T17:08:28.111Z,21.90
2023-05-22T17:10:55.785Z,21.80
2023-05-22T17:13:22.742Z,21.80
2023-05-22T17:15:50.811Z,21.60
2023-05-22T17:18:21.347Z,21.60
2023-05-22T17:20:51.403Z,21.50
2023-05-22T17:23:18.461Z,21.50
2023-05-22T17:25:48.733Z,21.40
2023-05-22T17:28:15.749Z,21.40
2023-05-22T17:30:44.266Z,21.40
2023-05-22T17:33:12.360Z,21.30
2023-05-22T17:35:39.735Z,21.30
2023-05-22T17:38:08.486Z,21.30
2023-05-22T17:40:44.878Z,21.10
2023-05-22T17:43:13.866Z,21.20
2023-05-22T17:45:41.830Z,21.10
2023-05-22T17:48:09.130Z,21.10
2023-05-22T17:50:36.061Z,21.10
2023-05-22T17:53:03.260Z,21.00
2023-05-22T17:55:30.387Z,21.00
2023-05-22T17:57:57.572Z,21.00
2023-05-22T18:00:24.596Z,20.90
2023-05-22T18:02:51.575Z,20.80
2023-05-22T18:05:18.621Z,20.80
2023-05-22T18:07:45.499Z,20.70
2023-05-22T18:10:12.378Z,20.70
2023-05-22T18:12:39.245Z,20.60
2023-05-22T18:15:09.563Z,20.50
2023-05-22T18:17:36.631Z,20.50
2023-05-22T18:20:06.902Z,20.50
2023-05-22T18:22:37.256Z,20.40
2023-05-22T18:25:04.867Z,20.40
2023-05-22T18:27:31.989Z,20.40
2023-05-22T18:29:58.997Z,20.40
2023-05-22T18:32:25.865Z,20.40
2023-05-22T18:34:52.762Z,20.40
2023-05-22T18:37:20.218Z,20.30
2023-05-22T18:39:47.432Z,20.40
2023-05-22T18:42:14.769Z,20.30
2023-05-22T18:44:41.667Z,20.20
2023-05-22T18:47:08.660Z,20.20
2023-05-22T18:49:35.587Z,20.10
2023-05-22T18:52:02.481Z,20.20
2023-05-22T18:54:29.350Z,20.10
2023-05-22T18:56:56.231Z,20.20
2023-05-22T18:59:23.083Z,20.00
2023-05-22T19:01:49.928Z,20.10
2023-05-22T19:04:16.843Z,19.80
2023-05-22T19:06:43.843Z,19.80
2023-05-22T19:09:10.903Z,19.80
2023-05-22T19:11:38.321Z,19.70
2023-05-22T19:14:05.455Z,19.70
2023-05-22T19:16:32.346Z,19.80
2023-05-22T19:18:59.331Z,19.80
2023-05-22T19:21:26.717Z,19.70
2023-05-22T19:23:53.590Z,19.60
2023-05-22T19:26:20.539Z,19.60
2023-05-22T19:28:47.510Z,19.60
2023-05-22T19:31:14.569Z,19.60
2023-05-22T19:33:41.589Z,19.60
2023-05-22T19:36:08.499Z,19.60
2023-05-22T19:38:35.397Z,19.50
2023-05-22T19:41:02.320Z,19.60
2023-05-22T19:43:31.318Z,19.50
2023-05-22T19:45:58.492Z,19.40
2023-05-22T19:48:25.729Z,19.40
2023-05-22T19:50:52.891Z,19.30
2023-05-22T19:53:19.743Z,19.20
2023-05-22T19:55:47.568Z,19.20
2023-05-22T19:58:14.462Z,19.10
2023-05-22T20:00:41.651Z,19.10
2023-05-22T20:03:09.113Z,19.00
2023-05-22T20:05:36.258Z,18.90
2023-05-22T20:08:03.188Z,18.90
2023-05-22T20:10:31.653Z,18.90
2023-05-22T20:12:59.335Z,18.90
2023-05-22T20:15:26.311Z,18.90
2023-05-22T20:17:54.474Z,18.80
2023-05-22T20:20:23.810Z,18.70
2023-05-22T20:22:52.743Z,18.70
2023-05-22T20:25:21.299Z,18.70
2023-05-22T20:27:48.325Z,18.70
2023-05-22T20:30:15.670Z,18.60
2023-05-22T20:32:43.322Z,18.50
2023-05-22T20:35:11.000Z,18.50
2023-05-22T20:37:38.336Z,18.60
2023-05-22T20:40:05.903Z,18.40
2023-05-22T20:42:32.772Z,18.40
2023-05-22T20:44:59.603Z,18.40
2023-05-22T20:47:26.566Z,18.40
2023-05-22T20:49:53.413Z,18.40
2023-05-22T20:54:47.973Z,18.40
2023-05-22T20:57:14.867Z,18.30
2023-05-22T20:59:41.697Z,18.30
2023-05-22T21:02:08.571Z,18.30
2023-05-22T21:04:35.411Z,18.40
2023-05-22T21:07:03.354Z,18.40
2023-05-22T21:09:30.375Z,18.40
2023-05-22T21:11:57.187Z,18.40
2023-05-22T21:14:24.041Z,18.20
2023-05-22T21:16:50.988Z,18.30
2023-05-22T21:19:17.930Z,18.30
2023-05-22T21:21:44.789Z,18.30
2023-05-22T21:24:11.670Z,18.30
2023-05-22T21:26:38.552Z,18.20
2023-05-22T21:29:05.554Z,18.10
2023-05-22T21:31:35.353Z,18.10
2023-05-22T21:34:03.101Z,18.10
2023-05-22T21:36:29.949Z,18.10
2023-05-22T21:39:00.177Z,18.30
2023-05-22T21:41:27.682Z,18.20
2023-05-22T21:43:54.576Z,18.20
2023-05-22T21:46:24.620Z,18.10
2023-05-22T21:48:51.753Z,18.10
2023-05-22T21:51:18.602Z,18.00
2023-05-22T21:53:46.527Z,18.00
2023-05-22T21:56:13.504Z,18.00
2023-05-22T21:58:40.540Z,18.10
2023-05-22T22:01:07.389Z,18.10
2023-05-22T22:03:34.379Z,18.00
2023-05-22T22:06:01.242Z,18.00
2023-05-22T22:08:29.403Z,17.90
2023-05-22T22:10:56.343Z,17.80
2023-05-22T22:13:23.196Z,18.00
2023-05-22T22:15:50.148Z,17.80
2023-05-22T22:18:17.245Z,17.80
2023-05-22T22:20:45.537Z,17.90
2023-05-22T22:23:12.780Z,17.80
2023-05-22T22:25:39.732Z,17.70
2023-05-22T22:28:07.396Z,17.70
2023-05-22T22:30:35.242Z,17.60
2023-05-22T22:33:02.525Z,17.60
2023-05-22T22:35:29.604Z,17.60
2023-05-22T22:37:56.522Z,17.60
2023-05-22T22:40:25.340Z,17.70
2023-05-22T22:42:53.501Z,17.60
2023-05-22T22:45:20.695Z,17.50
2023-05-22T22:47:48.306Z,17.60
2023-05-22T22:50:15.220Z,17.60
2023-05-22T22:52:45.638Z,17.60
2023-05-22T22:55:13.527Z,17.50
2023-05-22T22:57:43.352Z,17.50
2023-05-22T23:00:13.294Z,17.70
2023-05-22T23:02:40.606Z,17.70
2023-05-22T23:05:08.107Z,17.70
2023-05-22T23:07:35.217Z,17.60
2023-05-22T23:10:02.376Z,17.40
2023-05-22T23:12:29.324Z,17.60
2023-05-22T23:14:56.470Z,17.60
2023-05-22T23:17:23.360Z,17.60
2023-05-22T23:19:50.285Z,17.70
2023-05-22T23:22:18.987Z,17.50
2023-05-22T23:24:45.834Z,17.50
2023-05-22T23:27:12.770Z,17.50
2023-05-22T23:29:40.475Z,17.60
2023-05-22T23:32:07.429Z,17.70
2023-05-22T23:34:34.334Z,17.70
2023-05-22T23:37:01.219Z,17.80
2023-05-22T23:39:28.194Z,17.60
2023-05-22T23:41:55.158Z,17.60
2023-05-22T23:44:21.999Z,17.50
2023-05-22T23:46:50.102Z,17.40
2023-05-22T23:49:17.004Z,17.40
2023-05-22T23:51:43.960Z,17.50
2023-05-22T23:54:11.308Z,17.50
2023-05-22T23:56:38.207Z,17.50
2023-05-22T23:59:05.192Z,17.50
